Terminal Aerodrome Forecast
Issued by NWS Kansas City/Pleasant Hill, MO

Home | Current Version | Previous Version | Graphics & Text | Print | Product List | Glossary On
Versions: 1 2 3 4 5 6 7 8 9 10 11 12 13 14 15 16 17
000
FTUS43 KEAX 291723
TAFMCI
TAF
KMCI 291723Z 2918/3018 18012KT P6SM SCT120
     FM292200 18013KT 6SM -SHRA VCTS BKN050CB
      TEMPO 3000/3004 3SM -TSRA
     FM300500 21006KT P6SM BKN070
     FM301400 31008KT P6SM BKN025
      TEMPO 3014/3016 BKN010=

USA.gov is the U.S. government's official web portal to all federal, state and local government web resources and services.